Time;durP1;ratioP1;P1;durP2;ratioP2;P2;SDS_P1;SDS_P2;PMS_P1;PMS_P2;Temp;Humidity;BMP_temperature;BMP_pressure;BME280_temperature;BME280_humidity;BME280_pressure;Samples;Min_cycle;Max_cycle;Signal;HPM_P1;HPM_P2
2022/07/19 00:01:17;;;;;;;0.10;0.10;;;;;;;24.39;49.98;101909.47;5013225;28;20737;-82
2022/07/19 00:04:01;;;;;;;0.00;0.00;;;;;;;24.37;49.85;101911.41;5010128;28;20025;-83
2022/07/19 00:06:27;;;;;;;0.10;0.10;;;;;;;24.33;50.01;101899.00;5017594;28;20033;-82
2022/07/19 00:08:53;;;;;;;0.22;0.15;;;;;;;24.31;50.32;101900.94;5017786;28;20065;-82
2022/07/19 00:11:20;;;;;;;0.25;0.25;;;;;;;24.30;50.00;101904.59;5024097;28;20030;-81
2022/07/19 00:13:46;;;;;;;0.10;0.10;;;;;;;24.28;50.25;101895.72;5020332;28;20037;-83
2022/07/19 00:16:12;;;;;;;0.08;0.08;;;;;;;24.25;50.05;101898.59;5016365;28;20472;-83
2022/07/19 00:18:38;;;;;;;0.05;0.05;;;;;;;24.22;49.59;101900.56;5017218;28;20061;-82
2022/07/19 00:21:07;;;;;;;0.10;0.10;;;;;;;24.20;50.52;101905.19;5016959;28;20505;-81
2022/07/19 00:23:41;;;;;;;0.10;0.10;;;;;;;24.18;49.93;101895.41;5017313;28;20066;-82
2022/07/19 00:26:07;;;;;;;0.28;0.28;;;;;;;24.13;50.02;101898.38;5019124;28;20038;-83
2022/07/19 00:28:34;;;;;;;0.00;0.00;;;;;;;24.11;50.95;101903.00;5017847;28;20030;-82
2022/07/19 00:31:00;;;;;;;0.35;0.35;;;;;;;24.10;50.42;101898.59;5016257;28;20125;-83
2022/07/19 00:33:26;;;;;;;0.05;0.05;;;;;;;24.08;50.03;101900.50;5018668;28;20049;-82
2022/07/19 00:35:52;;;;;;;0.10;0.10;;;;;;;24.06;49.98;101899.72;5016026;28;20065;-83
2022/07/19 00:38:19;;;;;;;0.08;0.08;;;;;;;24.03;50.40;101908.03;5016326;28;20057;-83
2022/07/19 00:40:45;;;;;;;0.00;0.00;;;;;;;24.00;51.24;101902.78;5017758;28;20591;-82
2022/07/19 00:43:12;;;;;;;0.10;0.10;;;;;;;23.96;51.36;101898.53;5019525;28;20497;-82
2022/07/19 00:45:39;;;;;;;0.43;0.43;;;;;;;23.92;51.15;101903.25;5021464;28;20033;-83
2022/07/19 00:48:05;;;;;;;0.32;0.32;;;;;;;23.88;51.66;101902.53;5020132;28;20034;-81
2022/07/19 00:50:32;;;;;;;0.13;0.13;;;;;;;23.85;51.54;101900.03;5018799;28;20483;-80
2022/07/19 00:53:02;;;;;;;0.20;0.20;;;;;;;23.83;50.96;101901.94;5021970;28;20026;-82
2022/07/19 00:55:31;;;;;;;0.20;0.20;;;;;;;23.83;51.27;101904.66;5022147;28;20060;-82
2022/07/19 00:57:59;;;;;;;0.00;0.00;;;;;;;23.82;50.89;101900.19;5020257;28;20080;-81
2022/07/19 01:00:27;;;;;;;0.63;0.63;;;;;;;23.83;50.63;101901.09;5020008;28;20041;-83
2022/07/19 01:02:53;;;;;;;0.10;0.10;;;;;;;23.83;50.99;101896.53;5017884;28;20050;-82
2022/07/19 01:05:19;;;;;;;0.00;0.00;;;;;;;23.83;50.81;101901.94;5015762;28;20038;-82
2022/07/19 01:07:46;;;;;;;0.10;0.10;;;;;;;23.84;50.55;101903.69;5015320;28;20034;-80
2022/07/19 01:10:14;;;;;;;0.13;0.13;;;;;;;23.85;50.62;101910.84;5019847;28;20022;-80
2022/07/19 01:12:42;;;;;;;0.50;0.45;;;;;;;23.83;50.50;101904.66;5018852;28;20026;-82
2022/07/19 01:15:18;;;;;;;0.00;0.00;;;;;;;23.85;50.45;101900.03;5018207;28;20073;-80
2022/07/19 01:17:45;;;;;;;0.00;0.00;;;;;;;23.78;50.75;101895.94;5014177;28;20026;-81
2022/07/19 01:20:11;;;;;;;0.10;0.10;;;;;;;23.75;50.54;101898.81;5008875;28;20069;-81
2022/07/19 01:22:38;;;;;;;0.00;0.00;;;;;;;23.71;50.82;101891.84;5011867;28;20109;-81
2022/07/19 01:25:05;;;;;;;0.10;0.10;;;;;;;23.66;50.88;101897.53;5011500;28;20040;-80
2022/07/19 01:27:31;;;;;;;0.28;0.28;;;;;;;23.62;51.33;101892.41;5012857;28;20551;-80
2022/07/19 01:29:57;;;;;;;0.00;0.00;;;;;;;23.60;51.16;101897.88;5014277;28;20038;-81
2022/07/19 01:32:23;;;;;;;0.00;0.00;;;;;;;23.56;51.50;101896.31;5012784;28;20026;-82
2022/07/19 01:34:49;;;;;;;0.10;0.10;;;;;;;23.52;50.95;101894.78;5020936;28;20025;-82
2022/07/19 01:37:16;;;;;;;0.10;0.10;;;;;;;23.49;51.21;101897.63;5019414;28;20084;-83
2022/07/19 01:39:42;;;;;;;0.08;0.08;;;;;;;23.46;51.21;101897.84;5018635;28;20045;-82
2022/07/19 01:42:08;;;;;;;0.10;0.10;;;;;;;23.41;51.27;101896.28;5016846;28;20036;-82
2022/07/19 01:44:34;;;;;;;0.50;0.50;;;;;;;23.38;51.41;101884.75;5019196;28;20022;-83
2022/07/19 01:47:01;;;;;;;0.10;0.10;;;;;;;23.34;51.89;101891.28;5016236;28;20108;-82
2022/07/19 01:49:27;;;;;;;0.00;0.00;;;;;;;23.32;51.62;101893.22;5018636;28;20501;-82
2022/07/19 01:51:53;;;;;;;0.00;0.00;;;;;;;23.27;51.59;101883.53;5019811;28;20034;-82
2022/07/19 01:54:19;;;;;;;0.00;0.00;;;;;;;23.24;52.31;101881.00;5022371;28;20078;-82
2022/07/19 01:56:46;;;;;;;0.00;0.00;;;;;;;23.22;52.25;101880.22;5022517;28;20076;-83
2022/07/19 01:59:12;;;;;;;0.10;0.10;;;;;;;23.21;52.17;101878.47;5023119;28;20138;-83
2022/07/19 02:01:38;;;;;;;0.00;0.00;;;;;;;23.21;52.35;101880.31;5020146;28;20049;-84
2022/07/19 02:04:04;;;;;;;0.00;0.00;;;;;;;23.19;51.71;101880.41;5021324;28;20036;-82
2022/07/19 02:06:30;;;;;;;0.22;0.22;;;;;;;23.17;51.74;101882.31;5021255;28;20029;-83
2022/07/19 02:08:56;;;;;;;0.00;0.00;;;;;;;23.16;51.57;101875.16;5021663;28;20053;-83
2022/07/19 02:11:37;;;;;;;0.13;0.13;;;;;;;23.17;51.88;101881.44;5020675;28;20077;-83
2022/07/19 02:14:06;;;;;;;0.43;0.43;;;;;;;23.16;51.88;101875.16;5021763;28;20517;-83
2022/07/19 02:16:32;;;;;;;0.00;0.00;;;;;;;23.15;52.18;101865.25;5020634;28;20060;-83
2022/07/19 02:18:58;;;;;;;0.70;0.45;;;;;;;23.14;51.60;101866.25;5021110;28;20417;-82
2022/07/19 02:21:24;;;;;;;0.10;0.10;;;;;;;23.13;51.87;101864.50;5020591;28;20030;-84
2022/07/19 02:23:51;;;;;;;0.20;0.20;;;;;;;23.10;51.84;101859.25;5021242;28;20487;-82
2022/07/19 02:26:17;;;;;;;0.95;0.95;;;;;;;23.09;52.00;101862.91;5021372;28;20033;-82
2022/07/19 02:28:43;;;;;;;0.05;0.05;;;;;;;23.09;51.73;101868.31;5021414;28;20100;-83
2022/07/19 02:31:09;;;;;;;0.10;0.10;;;;;;;23.07;52.44;101868.41;5020659;28;20153;-82
2022/07/19 02:33:35;;;;;;;0.20;0.20;;;;;;;23.05;52.10;101864.06;5024833;28;20030;-82
2022/07/19 02:36:01;;;;;;;0.20;0.20;;;;;;;23.02;52.08;101862.41;5024353;28;20034;-84
2022/07/19 02:38:27;;;;;;;0.00;0.00;;;;;;;22.99;52.12;101856.28;5021619;28;20062;-83
2022/07/19 02:40:54;;;;;;;0.00;0.00;;;;;;;22.95;51.68;101858.28;5019995;28;20034;-82
2022/07/19 02:43:20;;;;;;;0.00;0.00;;;;;;;22.93;52.46;101849.41;5017870;28;20429;-81
2022/07/19 02:45:46;;;;;;;0.20;0.20;;;;;;;22.91;52.48;101854.88;5019269;28;20029;-82
2022/07/19 02:48:12;;;;;;;0.05;0.05;;;;;;;22.89;52.30;101856.81;5019099;28;20084;-82
2022/07/19 02:50:38;;;;;;;0.10;0.10;;;;;;;22.88;52.19;101857.78;5020065;28;20026;-83
2022/07/19 02:53:05;;;;;;;0.00;0.00;;;;;;;22.86;52.31;101856.13;5019814;28;20038;-82
2022/07/19 02:55:31;;;;;;;0.00;0.00;;;;;;;22.85;52.64;101857.06;5021554;28;20038;-83
2022/07/19 02:57:57;;;;;;;0.05;0.05;;;;;;;22.82;52.70;101855.41;5019467;28;20034;-82
2022/07/19 03:00:23;;;;;;;0.43;0.43;;;;;;;22.80;52.94;101861.88;5020711;28;20026;-82
2022/07/19 03:02:49;;;;;;;0.10;0.10;;;;;;;22.78;53.13;101860.13;5020314;28;20026;-83
2022/07/19 03:05:15;;;;;;;0.98;0.93;;;;;;;22.74;52.99;101863.94;5020776;28;20030;-83
2022/07/19 03:07:42;;;;;;;0.00;0.00;;;;;;;22.72;52.99;101862.28;5020911;28;20044;-83
2022/07/19 03:10:08;;;;;;;0.05;0.05;;;;;;;22.69;53.33;101860.63;5038615;23;20456;-77
2022/07/19 03:12:35;;;;;;;0.03;0.03;;;;;;;22.70;52.94;101856.09;5027736;28;20118;-77
2022/07/19 03:15:02;;;;;;;0.00;0.00;;;;;;;22.69;52.82;101855.25;5009554;28;20038;-77
2022/07/19 03:17:28;;;;;;;0.00;0.00;;;;;;;22.67;52.77;101859.84;5003065;28;20030;-77
2022/07/19 03:19:54;;;;;;;0.10;0.10;;;;;;;22.67;52.58;101859.84;5007986;28;20030;-77
2022/07/19 03:22:20;;;;;;;0.10;0.10;;;;;;;22.65;52.53;101852.78;5014459;28;20512;-77
2022/07/19 03:24:46;;;;;;;0.10;0.10;;;;;;;22.62;52.69;101853.81;5015468;28;20030;-77
2022/07/19 03:27:12;;;;;;;0.05;0.05;;;;;;;22.60;53.04;101851.22;5007836;28;20038;-77
2022/07/19 03:29:38;;;;;;;0.22;0.22;;;;;;;22.58;52.83;101850.41;5005399;28;20054;-77
2022/07/19 03:32:05;;;;;;;0.00;0.00;;;;;;;22.55;53.02;101847.00;5013723;28;20033;-77
2022/07/19 03:34:31;;;;;;;0.10;0.10;;;;;;;22.54;53.22;101845.25;5015728;28;20041;-77
2022/07/19 03:36:57;;;;;;;0.20;0.20;;;;;;;22.52;53.43;101849.84;5015354;28;20026;-77
2022/07/19 03:39:23;;;;;;;0.10;0.10;;;;;;;22.50;53.15;101849.09;5015638;28;20026;-77
2022/07/19 03:41:49;;;;;;;0.55;0.55;;;;;;;22.49;53.42;101848.19;5014910;28;20030;-77
2022/07/19 03:44:15;;;;;;;0.35;0.35;;;;;;;22.48;53.33;101851.88;5007043;28;20092;-77
2022/07/19 03:46:41;;;;;;;0.10;0.10;;;;;;;22.46;53.45;101845.69;5004360;28;20426;-77
2022/07/19 03:49:07;;;;;;;0.10;0.10;;;;;;;22.45;53.33;101847.53;5014690;28;20096;-77
2022/07/19 03:51:33;;;;;;;0.00;0.00;;;;;;;22.45;52.89;101849.34;5013619;28;20030;-77
2022/07/19 03:53:59;;;;;;;0.10;0.10;;;;;;;22.44;53.25;101850.28;5008778;28;20041;-78
2022/07/19 03:56:25;;;;;;;0.00;0.00;;;;;;;22.45;53.50;101846.63;5003679;28;20041;-77
2022/07/19 03:58:51;;;;;;;4.75;1.88;;;;;;;22.45;52.93;101849.34;5015354;28;20215;-77
2022/07/19 04:01:18;;;;;;;0.25;0.25;;;;;;;22.43;53.00;101846.72;5005212;28;20042;-77
2022/07/19 04:03:44;;;;;;;0.10;0.10;;;;;;;22.45;53.05;101849.34;5005606;28;20040;-77
2022/07/19 04:06:11;;;;;;;0.52;0.47;;;;;;;22.45;52.88;101857.44;5015058;28;20053;-77
2022/07/19 04:08:37;;;;;;;0.10;0.10;;;;;;;22.44;53.12;101856.56;5014624;28;20050;-77
2022/07/19 04:11:04;;;;;;;0.20;0.20;;;;;;;22.44;53.46;101850.28;5013655;28;20038;-77
2022/07/19 04:13:33;;;;;;;0.40;0.40;;;;;;;22.44;53.32;101848.47;5014274;28;20397;-77
2022/07/19 04:15:59;;;;;;;1.52;1.40;;;;;;;22.43;53.44;101843.13;5009007;28;20049;-77
2022/07/19 04:18:28;;;;;;;0.10;0.10;;;;;;;22.46;53.47;101840.28;5003244;28;20038;-77
2022/07/19 04:20:54;;;;;;;0.00;0.00;;;;;;;22.46;53.27;101843.84;5015506;28;20030;-77
2022/07/19 04:23:20;;;;;;;0.10;0.10;;;;;;;22.47;52.91;101844.72;5015248;28;20068;-77
2022/07/19 04:25:46;;;;;;;0.10;0.10;;;;;;;22.48;53.43;101841.09;5015476;28;20041;-77
2022/07/19 04:28:13;;;;;;;0.10;0.10;;;;;;;22.50;53.18;101839.16;5015213;28;20559;-77
2022/07/19 04:30:39;;;;;;;0.20;0.20;;;;;;;22.52;52.83;101839.94;5005332;28;20061;-77
2022/07/19 04:33:05;;;;;;;0.00;0.00;;;;;;;22.53;53.35;101841.69;5006128;28;20030;-77
2022/07/19 04:35:31;;;;;;;0.00;0.00;;;;;;;22.55;53.02;101842.47;5015612;28;20166;-77
2022/07/19 04:37:57;;;;;;;0.10;0.10;;;;;;;22.57;53.07;101845.97;5015314;28;20170;-77
2022/07/19 04:40:23;;;;;;;0.28;0.28;;;;;;;22.60;52.79;101842.22;5016077;28;20026;-77
2022/07/19 04:42:49;;;;;;;0.10;0.10;;;;;;;22.61;52.93;101835.88;5017261;28;20056;-77
2022/07/19 04:45:15;;;;;;;0.05;0.05;;;;;;;22.64;53.25;101840.22;5014135;28;20052;-77
2022/07/19 04:47:41;;;;;;;0.10;0.10;;;;;;;22.65;53.30;101841.97;5012060;28;20151;-77
2022/07/19 04:50:08;;;;;;;0.00;0.00;;;;;;;22.66;53.00;101841.88;5010019;28;20026;-77
2022/07/19 04:52:34;;;;;;;0.10;0.10;;;;;;;22.69;52.80;101849.84;5013786;28;20033;-77
2022/07/19 04:55:00;;;;;;;0.00;0.00;;;;;;;22.72;53.10;101837.97;5014636;28;20552;-77
2022/07/19 04:57:26;;;;;;;0.00;0.00;;;;;;;22.73;52.79;101845.09;5004023;28;20617;-77
2022/07/19 04:59:52;;;;;;;0.00;0.00;;;;;;;22.76;52.84;101843.09;5006000;28;20026;-77
2022/07/19 05:02:18;;;;;;;0.00;0.00;;;;;;;22.80;52.97;101843.81;5004916;28;20096;-77
2022/07/19 05:04:44;;;;;;;0.50;0.50;;;;;;;22.84;52.83;101837.31;5014942;28;20026;-77
2022/07/19 05:07:10;;;;;;;0.52;0.52;;;;;;;22.88;52.90;101843.38;5014778;28;20034;-77
2022/07/19 05:09:36;;;;;;;0.10;0.10;;;;;;;22.92;52.68;101840.41;5012313;28;20115;-77
2022/07/19 05:12:06;;;;;;;0.10;0.10;;;;;;;22.99;52.61;101840.06;5001295;28;20034;-77
2022/07/19 05:14:32;;;;;;;0.10;0.10;;;;;;;23.03;52.38;101837.13;5013282;28;20066;-78
2022/07/19 05:16:59;;;;;;;0.00;0.00;;;;;;;23.08;52.30;101839.56;5005135;28;20030;-78
2022/07/19 05:19:25;;;;;;;0.00;0.00;;;;;;;23.12;52.47;101838.41;5013888;28;20036;-78
2022/07/19 05:21:51;;;;;;;0.10;0.10;;;;;;;23.16;52.10;101837.31;5014138;28;20034;-78
2022/07/19 05:24:17;;;;;;;0.10;0.10;;;;;;;23.21;52.12;101839.75;5015565;28;20045;-78
2022/07/19 05:26:43;;;;;;;0.03;0.03;;;;;;;23.25;52.35;101842.19;5013439;28;20050;-78
2022/07/19 05:29:11;;;;;;;0.00;0.00;;;;;;;23.30;52.26;101838.34;5006506;28;20034;-78
2022/07/19 05:31:37;;;;;;;0.10;0.10;;;;;;;23.34;52.31;101842.59;5008137;28;20637;-78
2022/07/19 05:34:03;;;;;;;0.00;0.00;;;;;;;23.37;52.55;101845.16;5012703;28;20033;-78
2022/07/19 05:36:29;;;;;;;0.10;0.10;;;;;;;23.41;52.28;101852.13;5018489;28;20044;-78
2022/07/19 05:38:56;;;;;;;0.10;0.10;;;;;;;23.46;52.19;101841.91;5019121;28;20077;-77
2022/07/19 05:41:22;;;;;;;0.10;0.10;;;;;;;23.51;52.67;101842.50;5017197;28;20036;-78
2022/07/19 05:43:49;;;;;;;0.10;0.10;;;;;;;23.56;52.24;101842.22;5009830;28;20022;-77
2022/07/19 05:46:16;;;;;;;0.35;0.35;;;;;;;23.59;52.08;101834.81;5016960;28;20370;-77
2022/07/19 05:48:43;;;;;;;0.00;0.00;;;;;;;23.65;52.50;101838.09;5018753;28;20033;-77
2022/07/19 05:51:09;;;;;;;0.17;0.17;;;;;;;23.69;52.02;101835.13;5017624;28;20030;-78
2022/07/19 05:53:36;;;;;;;0.00;0.00;;;;;;;23.74;51.82;101837.56;5016260;28;20049;-77
2022/07/19 05:56:04;;;;;;;0.00;0.00;;;;;;;23.80;51.41;101831.78;5014480;28;20111;-77
2022/07/19 05:58:30;;;;;;;0.25;0.25;;;;;;;23.84;51.12;101837.84;5012627;28;20113;-77
2022/07/19 06:01:28;;;;;;;0.00;0.00;;;;;;;23.90;51.13;101838.38;5003537;28;20042;-77
2022/07/19 06:03:44;;;;;;;0.00;0.00;;;;;;;23.98;50.92;101842.50;5016302;28;20061;-78
2022/07/19 06:06:10;;;;;;;0.20;0.20;;;;;;;24.03;50.84;101826.84;5017105;28;20401;-77
2022/07/19 06:08:36;;;;;;;0.35;0.35;;;;;;;24.09;50.51;101837.28;5017269;28;20064;-78
2022/07/19 06:11:02;;;;;;;0.10;0.10;;;;;;;24.15;50.53;101836.91;5006614;28;20045;-78
2022/07/19 06:13:29;;;;;;;0.17;0.17;;;;;;;24.23;50.56;101836.41;5014183;28;20072;-78
2022/07/19 06:15:55;;;;;;;1.58;1.48;;;;;;;24.31;50.63;101835.94;5006631;28;20030;-77
2022/07/19 06:18:21;;;;;;;0.00;0.00;;;;;;;24.38;50.67;101840.00;5014574;28;20036;-77
2022/07/19 06:20:47;;;;;;;0.10;0.10;;;;;;;24.46;50.88;101835.00;5013774;28;20474;-77
2022/07/19 06:23:13;;;;;;;0.20;0.20;;;;;;;24.53;50.69;101833.59;5015235;28;20030;-77
2022/07/19 06:25:40;;;;;;;0.15;0.15;;;;;;;24.60;50.45;101827.81;5013919;28;20030;-77
2022/07/19 06:28:06;;;;;;;0.10;0.10;;;;;;;24.67;50.41;101831.91;5004446;28;20109;-77
2022/07/19 06:30:32;;;;;;;0.10;0.10;;;;;;;24.74;50.87;101832.38;5004518;28;20521;-77
2022/07/19 06:32:58;;;;;;;0.00;0.00;;;;;;;24.81;50.41;101829.19;5013434;28;20030;-77
2022/07/19 06:35:24;;;;;;;0.03;0.03;;;;;;;24.88;49.99;101835.06;5013693;28;20038;-77
2022/07/19 06:37:50;;;;;;;0.10;0.10;;;;;;;24.96;49.89;101837.25;5014095;28;20543;-77
2022/07/19 06:40:16;;;;;;;0.00;0.00;;;;;;;25.03;50.27;101835.91;5013890;28;20490;-77
2022/07/19 06:42:42;;;;;;;0.25;0.25;;;;;;;25.13;49.90;101831.59;5002256;28;21376;-77
2022/07/19 06:45:09;;;;;;;0.20;0.20;;;;;;;25.20;49.77;101829.38;5013355;28;20128;-77
2022/07/19 06:47:35;;;;;;;0.10;0.10;;;;;;;25.29;49.87;101833.31;5006608;28;20034;-77
2022/07/19 06:50:02;;;;;;;0.28;0.28;;;;;;;25.37;49.94;101833.66;5013573;28;20465;-77
2022/07/19 06:52:28;;;;;;;0.00;0.00;;;;;;;25.45;49.62;101830.47;5013363;28;20030;-77
2022/07/19 06:54:54;;;;;;;0.00;0.00;;;;;;;25.51;49.70;101828.19;5014168;28;20030;-77
2022/07/19 06:57:20;;;;;;;0.03;0.03;;;;;;;25.58;50.24;101828.63;5013044;28;20052;-77
2022/07/19 06:59:46;;;;;;;0.10;0.10;;;;;;;25.66;49.64;101829.00;5002992;28;20026;-77
2022/07/19 07:02:12;;;;;;;0.10;0.10;;;;;;;25.72;49.52;101819.56;5009528;28;20055;-80
2022/07/19 07:04:38;;;;;;;0.30;0.30;;;;;;;25.82;49.19;101817.06;5012405;28;20068;-77
2022/07/19 07:07:04;;;;;;;0.13;0.13;;;;;;;25.92;48.73;101817.28;5017733;28;20045;-78
2022/07/19 07:09:30;;;;;;;0.10;0.10;;;;;;;26.00;48.45;101812.22;5020222;28;20046;-77
2022/07/19 07:11:56;;;;;;;0.10;0.10;;;;;;;26.11;48.33;101814.22;5019873;28;20025;-77
2022/07/19 07:14:22;;;;;;;0.10;0.10;;;;;;;26.19;48.09;101806.38;5018488;28;20045;-78
2022/07/19 07:16:48;;;;;;;0.90;0.45;;;;;;;26.29;47.85;101812.00;5018430;28;20033;-78
2022/07/19 07:19:14;;;;;;;2.72;0.57;;;;;;;26.38;47.94;101799.63;5015766;28;20037;-77
2022/07/19 07:21:41;;;;;;;0.43;0.43;;;;;;;26.47;47.83;101797.09;5012262;28;20042;-77
2022/07/19 07:24:07;;;;;;;0.43;0.43;;;;;;;26.57;47.29;101796.44;5013889;28;20507;-78
2022/07/19 07:26:33;;;;;;;0.03;0.03;;;;;;;26.67;47.35;101797.50;5014814;28;20482;-77
2022/07/19 07:28:59;;;;;;;0.40;0.40;;;;;;;26.76;47.49;101796.84;5005733;28;20034;-77
2022/07/19 07:31:25;;;;;;;0.32;0.32;;;;;;;26.86;47.19;101804.34;5006643;28;20116;-78
2022/07/19 07:33:51;;;;;;;0.20;0.20;;;;;;;26.97;47.21;101801.69;5016116;28;20041;-77
2022/07/19 07:36:18;;;;;;;0.10;0.10;;;;;;;27.09;47.11;101799.88;5017093;28;20081;-77
2022/07/19 07:38:44;;;;;;;1.52;0.55;;;;;;;27.21;47.26;101803.53;5013136;28;20045;-79
2022/07/19 07:41:10;;;;;;;0.17;0.17;;;;;;;27.34;46.84;101804.34;5003815;28;20029;-78
2022/07/19 07:43:37;;;;;;;0.40;0.40;;;;;;;27.47;46.09;101798.00;5011633;28;20630;-77
2022/07/19 07:46:03;;;;;;;0.15;0.15;;;;;;;27.57;46.15;101796.28;5010895;28;20037;-78
2022/07/19 07:48:29;;;;;;;0.00;0.00;;;;;;;27.65;46.13;101799.28;5016644;28;20029;-77
2022/07/19 07:50:56;;;;;;;0.10;0.10;;;;;;;27.79;45.83;101792.78;5016461;28;20478;-77
2022/07/19 07:53:22;;;;;;;0.73;0.73;;;;;;;27.88;45.61;101799.34;5017123;28;20034;-80
2022/07/19 07:55:48;;;;;;;0.00;0.00;;;;;;;28.00;45.44;101795.66;5009881;28;20096;-79
2022/07/19 07:58:14;;;;;;;0.30;0.30;;;;;;;28.07;45.09;101790.59;5013434;28;20128;-78
2022/07/19 08:00:41;;;;;;;0.17;0.17;;;;;;;28.21;44.75;101800.41;5017574;28;20511;-78
2022/07/19 08:03:07;;;;;;;0.17;0.17;;;;;;;28.31;44.55;101789.63;5010431;28;20029;-78
2022/07/19 08:05:33;;;;;;;0.90;0.45;;;;;;;28.43;44.68;101790.50;5015730;28;20180;-77
2022/07/19 08:08:00;;;;;;;0.10;0.10;;;;;;;28.57;45.09;101788.38;5010812;28;20029;-78
2022/07/19 08:10:31;;;;;;;4.30;1.75;;;;;;;28.68;45.47;101794.84;5017521;28;20053;-78
2022/07/19 08:12:57;;;;;;;0.15;0.15;;;;;;;28.79;43.84;101791.25;5012627;28;20049;-78
2022/07/19 08:15:23;;;;;;;0.10;0.10;;;;;;;28.92;44.18;101791.91;5015683;28;20033;-77
2022/07/19 08:17:49;;;;;;;0.60;0.60;;;;;;;29.03;43.35;101800.06;5008972;28;20034;-77
2022/07/19 08:20:15;;;;;;;0.10;0.10;;;;;;;29.14;42.81;101792.88;5017225;28;20057;-78
2022/07/19 08:22:42;;;;;;;0.00;0.00;;;;;;;29.24;42.57;101785.63;5014098;28;20035;-77
2022/07/19 08:25:09;;;;;;;0.35;0.35;;;;;;;29.32;41.63;101782.28;5015238;28;20026;-77
2022/07/19 08:27:35;;;;;;;0.00;0.00;;;;;;;29.45;41.61;101782.09;5006281;28;20057;-80
2022/07/19 08:30:03;;;;;;;0.00;0.00;;;;;;;29.54;42.08;101781.28;5007324;28;20064;-78
2022/07/19 08:32:29;;;;;;;0.10;0.10;;;;;;;29.65;42.15;101781.22;5015645;28;20034;-77
2022/07/19 08:34:55;;;;;;;0.20;0.20;;;;;;;29.76;42.32;101784.88;5016036;28;20034;-77
2022/07/19 08:37:22;;;;;;;0.65;0.65;;;;;;;29.85;41.53;101781.34;5015359;28;20579;-78
2022/07/19 08:39:48;;;;;;;0.52;0.52;;;;;;;29.96;41.70;101766.81;5017401;28;20029;-77
2022/07/19 08:42:19;;;;;;;0.20;0.20;;;;;;;30.11;41.61;101765.41;5014108;28;20026;-78
2022/07/19 08:44:49;;;;;;;1.50;1.05;;;;;;;30.21;41.45;101770.06;5010474;28;20494;-78
2022/07/19 08:47:18;;;;;;;0.50;0.50;;;;;;;30.31;42.05;101763.63;5001142;28;20034;-78
2022/07/19 08:49:44;;;;;;;0.35;0.35;;;;;;;30.44;41.08;101762.53;5014168;28;20117;-78
2022/07/19 08:52:11;;;;;;;0.47;0.47;;;;;;;30.52;41.41;101765.47;5012709;28;20487;-78
2022/07/19 08:54:38;;;;;;;1.77;0.55;;;;;;;30.64;40.16;101758.88;5013952;28;20034;-80
2022/07/19 08:59:51;;;;;;;0.10;0.10;;;;;;;30.85;38.03;101752.41;5012083;28;20077;-78
2022/07/19 09:02:17;;;;;;;0.10;0.10;;;;;;;31.02;38.95;101752.72;5006961;28;20121;-78
2022/07/19 09:04:58;;;;;;;0.10;0.10;;;;;;;31.10;38.18;101750.16;5007916;28;20187;-78
2022/07/19 09:07:24;;;;;;;0.13;0.13;;;;;;;31.25;37.55;101750.59;5014172;28;20033;-77
2022/07/19 09:09:50;;;;;;;1.15;0.25;;;;;;;31.38;38.92;101755.75;5003983;28;20550;-78
2022/07/19 09:12:16;;;;;;;0.20;0.20;;;;;;;31.46;38.66;101748.53;5009604;28;20122;-78
2022/07/19 09:14:52;;;;;;;0.10;0.10;;;;;;;31.59;38.76;101748.25;5006504;28;20623;-78
2022/07/19 09:17:20;;;;;;;0.05;0.05;;;;;;;31.71;37.57;101750.84;5015000;28;20037;-78
2022/07/19 09:19:49;;;;;;;0.10;0.10;;;;;;;31.81;37.18;101740.72;5014778;28;20045;-78
2022/07/19 09:22:18;;;;;;;0.25;0.25;;;;;;;31.90;36.77;101738.97;5014039;28;20034;-78
2022/07/19 09:27:25;;;;;;;0.10;0.10;;;;;;;32.15;36.52;101742.94;5072392;28;20142;-83
2022/07/19 09:29:56;;;;;;;0.30;0.30;;;;;;;32.30;37.24;101736.94;5064783;28;20029;-83
2022/07/19 09:32:26;;;;;;;0.00;0.00;;;;;;;32.39;36.68;101738.78;5073018;28;20052;-84
2022/07/19 09:37:34;;;;;;;0.10;0.10;;;;;;;32.57;37.97;101730.59;5196269;27;20397;-81
2022/07/19 09:40:04;;;;;;;0.35;0.35;;;;;;;32.69;36.91;101734.84;5168024;27;20075;-82
2022/07/19 09:42:45;;;;;;;4.03;0.45;;;;;;;32.88;35.95;101728.38;5172561;27;20045;-83
2022/07/19 09:45:14;;;;;;;0.25;0.25;;;;;;;32.95;36.41;101727.75;5155777;27;20042;-82
2022/07/19 09:47:46;;;;;;;0.28;0.28;;;;;;;33.05;36.91;101723.91;5155431;27;20524;-81
2022/07/19 09:50:16;;;;;;;0.10;0.10;;;;;;;33.14;36.14;101722.09;5153910;27;20031;-82
2022/07/19 09:52:44;;;;;;;0.00;0.00;;;;;;;33.26;35.83;101716.34;5154135;27;20224;-82
2022/07/19 09:55:11;;;;;;;0.20;0.20;;;;;;;33.35;36.74;101709.94;5154317;27;20023;-81
2022/07/19 09:57:44;;;;;;;0.05;0.05;;;;;;;33.50;36.38;101715.72;5154439;27;20038;-81
2022/07/19 10:00:12;;;;;;;0.30;0.30;;;;;;;33.56;35.34;101704.09;5153670;27;20129;-82
2022/07/19 10:02:42;;;;;;;0.20;0.20;;;;;;;33.68;35.55;101702.78;5152994;27;20042;-84
2022/07/19 10:05:10;;;;;;;3.70;1.45;;;;;;;33.74;34.01;101706.75;5155734;27;20038;-82
2022/07/19 10:07:37;;;;;;;0.20;0.20;;;;;;;33.88;36.04;101704.47;5156171;27;20027;-83
2022/07/19 10:10:05;;;;;;;0.25;0.25;;;;;;;33.95;34.21;101702.78;5155339;27;20039;-82
2022/07/19 10:12:33;;;;;;;0.88;0.65;;;;;;;34.07;36.10;101706.97;5152794;27;20058;-83
2022/07/19 10:14:59;;;;;;;0.85;0.32;;;;;;;34.16;33.87;101700.47;5154508;27;20019;-81
2022/07/19 10:20:07;;;;;;;0.00;0.00;;;;;;;34.39;31.88;101688.00;5094004;27;20419;-81
2022/07/19 10:22:33;;;;;;;0.10;0.10;;;;;;;34.55;33.39;101684.44;5093346;28;20028;-80
2022/07/19 10:25:11;;;;;;;0.10;0.10;;;;;;;34.69;34.17;101686.50;5092755;28;20470;-80
2022/07/19 10:27:46;;;;;;;0.00;0.00;;;;;;;34.78;31.36;101680.00;5092134;28;20032;-80
2022/07/19 10:32:51;;;;;;;0.10;0.10;;;;;;;34.94;32.13;101681.06;5075974;28;20044;-82
2022/07/19 10:38:11;;;;;;;0.73;0.73;;;;;;;35.11;31.28;101677.28;5114157;27;20436;-84
2022/07/19 10:43:20;;;;;;;0.50;0.50;;;;;;;35.36;32.14;101677.25;5074437;27;20406;-82
2022/07/19 10:51:34;;;;;;;0.10;0.10;;;;;;;35.75;31.56;101661.84;5154552;27;20401;-83
2022/07/19 10:56:41;;;;;;;0.32;0.32;;;;;;;35.80;29.29;101659.41;5113972;27;20355;-84
2022/07/19 10:59:10;;;;;;;0.30;0.30;;;;;;;35.94;29.19;101666.97;5114361;28;20067;-83
2022/07/19 11:01:52;;;;;;;0.43;0.43;;;;;;;36.06;30.73;101656.38;5112427;28;20024;-82
2022/07/19 11:07:22;;;;;;;0.10;0.10;;;;;;;36.37;29.71;101649.19;5119486;27;1238965;-81
2022/07/19 11:09:54;;;;;;;0.03;0.03;;;;;;;36.36;28.97;101647.44;5124371;28;20027;-84
2022/07/19 11:15:07;;;;;;;0.00;0.00;;;;;;;36.47;28.56;101637.94;5078865;27;20390;-83
2022/07/19 11:17:33;;;;;;;0.68;0.68;;;;;;;36.55;28.67;101637.84;5076055;28;20028;-83
2022/07/19 11:20:06;;;;;;;0.17;0.17;;;;;;;36.67;27.91;101633.59;5068290;28;20388;-84
2022/07/19 11:22:34;;;;;;;0.10;0.10;;;;;;;36.73;26.61;101640.31;5071890;28;20032;-83
2022/07/19 11:25:00;;;;;;;0.15;0.15;;;;;;;36.86;29.39;101632.28;5075047;28;20033;-83
2022/07/19 11:27:26;;;;;;;0.30;0.20;;;;;;;36.98;28.11;101634.59;5076781;28;20123;-83
2022/07/19 11:29:54;;;;;;;0.10;0.10;;;;;;;37.05;25.75;101630.91;5081955;28;20444;-83
2022/07/19 11:32:20;;;;;;;0.43;0.43;;;;;;;37.15;26.06;101629.75;5076870;28;20150;-83
2022/07/19 11:35:06;;;;;;;0.00;0.00;;;;;;;37.31;27.09;101628.72;5074007;28;20596;-83
2022/07/19 11:37:36;;;;;;;0.00;0.00;;;;;;;37.31;26.48;101621.31;5073621;28;20032;-84
2022/07/19 11:40:04;;;;;;;0.00;0.00;;;;;;;37.38;26.32;101622.28;5079443;28;20443;-84
2022/07/19 11:42:36;;;;;;;0.10;0.10;;;;;;;37.44;27.19;101620.69;5077959;28;20112;-83
2022/07/19 11:45:16;;;;;;;0.00;0.00;;;;;;;37.56;26.59;101618.28;5076475;28;20036;-84
2022/07/19 11:47:48;;;;;;;0.17;0.17;;;;;;;37.60;27.83;101616.00;5076718;28;20041;-83
2022/07/19 11:50:16;;;;;;;0.10;0.10;;;;;;;37.64;26.60;101615.41;5077364;28;20412;-84
2022/07/19 11:55:24;;;;;;;0.10;0.10;;;;;;;37.77;26.10;101605.59;5077322;28;20390;-82
2022/07/19 11:57:54;;;;;;;0.20;0.20;;;;;;;37.83;26.95;101604.84;5057105;28;20029;-83
2022/07/19 12:00:23;;;;;;;0.15;0.15;;;;;;;37.92;26.88;101597.28;5066146;28;20128;-84